createdAt,value
2022-12-23T00:00:45.277Z,72.66
2022-12-23T00:03:12.737Z,72.70
2022-12-23T00:05:40.538Z,73.32
2022-12-23T00:08:08.074Z,72.60
2022-12-23T00:10:39.087Z,73.00
2022-12-23T00:13:24.848Z,73.29
2022-12-23T00:15:51.884Z,73.12
2022-12-23T00:18:18.823Z,72.79
2022-12-23T00:20:45.776Z,72.63
2022-12-23T00:23:13.037Z,72.92
2022-12-23T00:25:43.948Z,72.69
2022-12-23T00:28:16.483Z,72.96
2022-12-23T00:31:03.954Z,73.24
2022-12-23T00:33:39.996Z,73.26
2022-12-23T00:36:29.945Z,73.77
2022-12-23T00:39:17.504Z,72.71
2022-12-23T00:42:03.268Z,73.06
2022-12-23T00:44:30.756Z,72.56
2022-12-23T00:46:57.759Z,73.15
2022-12-23T00:49:43.084Z,72.75
2022-12-23T00:52:12.622Z,72.84
2022-12-23T00:54:41.036Z,73.31
2022-12-23T00:57:08.014Z,73.16
2022-12-23T00:59:35.189Z,73.23
2022-12-23T01:02:21.055Z,73.33
2022-12-23T01:05:06.520Z,73.33
2022-12-23T01:07:33.788Z,73.22
2022-12-23T01:10:00.859Z,73.38
2022-12-23T01:12:28.302Z,73.25
2022-12-23T01:14:55.426Z,73.45
2022-12-23T01:17:22.535Z,73.68
2022-12-23T01:19:49.588Z,74.09
2022-12-23T01:22:16.599Z,73.46
2022-12-23T01:24:43.587Z,73.90
2022-12-23T01:27:10.569Z,73.81
2022-12-23T01:29:37.705Z,74.48
2022-12-23T01:32:04.981Z,74.66
2022-12-23T01:34:36.699Z,74.61
2022-12-23T01:37:05.397Z,73.96
2022-12-23T01:39:32.821Z,73.94
2022-12-23T01:42:18.510Z,74.08
2022-12-23T01:45:11.592Z,73.60
2022-12-23T01:47:50.410Z,74.65
2022-12-23T01:50:50.255Z,73.62
2022-12-23T01:53:22.014Z,73.60
2022-12-23T01:55:51.269Z,73.91
2022-12-23T01:58:30.567Z,74.54
2022-12-23T02:01:17.635Z,73.49
2022-12-23T02:03:46.399Z,73.81
2022-12-23T02:06:44.907Z,74.25
2022-12-23T02:09:17.544Z,74.65
2022-12-23T02:12:22.025Z,74.99
2022-12-23T02:15:25.473Z,74.48
2022-12-23T02:18:11.872Z,74.60
2022-12-23T02:21:26.323Z,74.41
2022-12-23T02:23:53.381Z,74.25
2022-12-23T02:26:33.774Z,73.89
2022-12-23T02:29:15.925Z,74.40
2022-12-23T02:31:56.823Z,74.49
2022-12-23T02:34:51.240Z,75.16
2022-12-23T02:37:24.186Z,74.78
2022-12-23T02:40:13.116Z,74.90
2022-12-23T02:42:59.614Z,75.58
2022-12-23T02:45:55.847Z,75.24
2022-12-23T02:48:27.378Z,75.24
2022-12-23T02:50:56.902Z,75.15
2022-12-23T02:53:37.611Z,75.23
2022-12-23T02:56:08.247Z,74.83
2022-12-23T02:58:42.457Z,75.11
2022-12-23T03:01:12.362Z,74.30
2022-12-23T03:03:41.537Z,74.54
2022-12-23T03:06:19.866Z,74.76
2022-12-23T03:08:47.983Z,74.93
2022-12-23T03:11:16.874Z,75.31
2022-12-23T03:13:59.036Z,74.85
2022-12-23T03:17:00.509Z,75.48
2022-12-23T03:19:47.699Z,75.00
2022-12-23T03:22:38.606Z,74.47
2022-12-23T03:25:23.482Z,75.48
2022-12-23T03:28:09.514Z,75.02
2022-12-23T03:30:39.493Z,74.24
2022-12-23T03:33:17.221Z,75.35
2022-12-23T03:35:50.144Z,75.20
2022-12-23T03:38:19.479Z,74.68
2022-12-23T03:40:55.551Z,75.01
2022-12-23T03:43:29.032Z,74.75
2022-12-23T03:46:03.414Z,74.55
2022-12-23T03:48:37.094Z,74.25
2022-12-23T03:51:19.348Z,75.05
2022-12-23T03:53:54.961Z,74.07
2022-12-23T03:56:48.161Z,74.32
2022-12-23T03:59:21.646Z,74.15
2022-12-23T04:02:07.017Z,74.46
2022-12-23T04:04:40.155Z,73.54
2022-12-23T04:07:15.760Z,73.71
2022-12-23T04:09:43.619Z,73.93
2022-12-23T04:12:10.967Z,74.47
2022-12-23T04:14:45.322Z,74.48
2022-12-23T04:17:12.332Z,74.52
2022-12-23T04:19:39.293Z,74.69
2022-12-23T04:22:06.311Z,74.60
2022-12-23T04:24:33.323Z,74.61
2022-12-23T04:27:00.295Z,73.96
2022-12-23T04:29:27.224Z,74.06
2022-12-23T04:31:54.193Z,74.44
2022-12-23T04:34:21.216Z,74.37
2022-12-23T04:36:48.231Z,73.95
2022-12-23T04:39:15.281Z,73.93
2022-12-23T04:41:42.229Z,74.21
2022-12-23T04:44:09.320Z,73.77
2022-12-23T04:46:36.308Z,73.93
2022-12-23T04:49:03.389Z,74.81
2022-12-23T04:51:30.340Z,74.36
2022-12-23T04:53:57.289Z,74.54
2022-12-23T04:56:24.410Z,74.60
2022-12-23T04:58:51.438Z,74.54
2022-12-23T05:01:18.416Z,74.13
2022-12-23T05:03:45.405Z,74.04
2022-12-23T05:06:12.414Z,73.76
2022-12-23T05:08:39.434Z,73.74
2022-12-23T05:11:06.460Z,74.19
2022-12-23T05:13:33.435Z,74.10
2022-12-23T05:16:00.483Z,74.29
2022-12-23T05:18:27.572Z,74.29
2022-12-23T05:20:54.559Z,73.99
2022-12-23T05:23:21.520Z,74.17
2022-12-23T05:25:53.192Z,74.20
2022-12-23T05:28:22.162Z,74.29
2022-12-23T05:30:49.138Z,74.43
2022-12-23T05:33:16.177Z,74.15
2022-12-23T05:35:43.219Z,74.21
2022-12-23T05:38:10.172Z,74.21
2022-12-23T05:40:37.137Z,74.26
2022-12-23T05:43:04.219Z,73.88
2022-12-23T05:45:31.231Z,74.37
2022-12-23T05:47:58.235Z,74.84
2022-12-23T05:50:25.169Z,73.97
2022-12-23T05:52:52.125Z,74.38
2022-12-23T05:55:19.065Z,74.30
2022-12-23T05:57:46.051Z,74.02
2022-12-23T06:00:14.131Z,74.50
2022-12-23T06:02:41.279Z,73.91
2022-12-23T06:05:08.936Z,74.56
2022-12-23T06:07:36.010Z,73.81
2022-12-23T06:10:03.495Z,74.56
2022-12-23T06:12:30.541Z,73.80
2022-12-23T06:14:57.500Z,74.05
2022-12-23T06:17:24.456Z,74.39
2022-12-23T06:19:51.459Z,74.57
2022-12-23T06:22:21.123Z,73.82
2022-12-23T06:24:48.464Z,74.28
2022-12-23T06:27:15.722Z,74.45
2022-12-23T06:29:42.783Z,74.31
2022-12-23T06:32:09.936Z,74.04
2022-12-23T06:34:36.952Z,74.08
2022-12-23T06:37:03.967Z,74.22
2022-12-23T06:39:30.943Z,73.87
2022-12-23T06:41:57.970Z,74.12
2022-12-23T06:44:24.906Z,74.03
2022-12-23T06:46:51.885Z,74.23
2022-12-23T06:49:18.862Z,74.27
2022-12-23T06:51:45.791Z,74.80
2022-12-23T06:54:13.017Z,74.12
2022-12-23T06:56:40.148Z,74.00
2022-12-23T06:59:07.204Z,74.00
2022-12-23T07:01:34.373Z,74.74
2022-12-23T07:04:02.132Z,73.84
2022-12-23T07:06:29.597Z,73.77
2022-12-23T07:08:56.581Z,73.76
2022-12-23T07:11:23.522Z,73.85
2022-12-23T07:13:50.692Z,74.76
2022-12-23T07:16:17.759Z,74.26
2022-12-23T07:18:44.847Z,74.37
2022-12-23T07:21:20.024Z,74.67
2022-12-23T07:23:51.810Z,73.30
2022-12-23T07:26:18.854Z,74.37
2022-12-23T07:28:48.278Z,74.56
2022-12-23T07:31:16.504Z,73.84
2022-12-23T07:33:43.631Z,74.20
2022-12-23T07:36:11.040Z,73.81
2022-12-23T07:38:37.998Z,74.68
2022-12-23T07:41:05.161Z,73.98
2022-12-23T07:43:32.120Z,73.75
2022-12-23T07:46:00.839Z,73.82
2022-12-23T07:48:28.300Z,74.01
2022-12-23T07:51:01.768Z,73.37
2022-12-23T07:53:28.973Z,73.61
2022-12-23T07:55:57.034Z,73.99
2022-12-23T07:58:25.082Z,73.93
2022-12-23T08:00:59.799Z,73.96
2022-12-23T08:03:26.868Z,73.97
2022-12-23T08:06:09.028Z,73.94
2022-12-23T08:08:36.254Z,73.22
2022-12-23T08:11:05.477Z,73.23
2022-12-23T08:13:34.628Z,73.20
2022-12-23T08:16:03.068Z,73.46
2022-12-23T08:18:31.997Z,73.63
2022-12-23T08:21:04.507Z,74.39
2022-12-23T08:23:32.350Z,73.90
2022-12-23T08:26:04.559Z,73.37
2022-12-23T08:28:32.243Z,74.06
2022-12-23T08:31:05.201Z,73.60
2022-12-23T08:33:32.387Z,73.63
2022-12-23T08:35:59.802Z,74.06
2022-12-23T08:38:26.787Z,74.48
2022-12-23T08:40:53.763Z,73.86
2022-12-23T08:43:20.764Z,74.55
2022-12-23T08:45:47.820Z,73.68
2022-12-23T08:48:15.279Z,74.23
2022-12-23T08:50:44.884Z,74.23
2022-12-23T08:53:13.426Z,74.87
2022-12-23T08:55:43.502Z,74.43
2022-12-23T08:58:11.278Z,74.18
2022-12-23T09:00:39.051Z,73.85
2022-12-23T09:03:06.689Z,74.14
2022-12-23T09:05:34.571Z,74.30
2022-12-23T09:08:02.268Z,74.07
2022-12-23T09:10:29.396Z,74.19
2022-12-23T09:12:58.093Z,74.11
2022-12-23T09:15:25.364Z,74.33
2022-12-23T09:17:52.321Z,73.21
2022-12-23T09:20:19.281Z,73.74
2022-12-23T09:22:46.272Z,73.39
2022-12-23T09:25:14.292Z,74.49
2022-12-23T09:27:41.382Z,73.78
2022-12-23T09:30:10.354Z,74.58
2022-12-23T09:32:37.310Z,74.17
2022-12-23T09:35:04.865Z,74.30
2022-12-23T09:37:31.839Z,73.57
2022-12-23T09:39:58.875Z,74.17
2022-12-23T09:42:31.255Z,74.41
2022-12-23T09:45:25.955Z,74.46
2022-12-23T09:47:55.631Z,74.56
2022-12-23T09:50:28.938Z,74.30
2022-12-23T09:53:13.273Z,74.19
2022-12-23T09:55:49.150Z,73.80
2022-12-23T09:58:38.065Z,74.27
2022-12-23T10:01:14.428Z,74.56
2022-12-23T10:03:44.258Z,74.92
2022-12-23T10:06:20.078Z,73.92
2022-12-23T10:08:54.802Z,73.85
2022-12-23T10:11:26.708Z,74.03
2022-12-23T10:14:00.199Z,74.14
2022-12-23T10:16:35.823Z,73.59
2022-12-23T10:19:08.771Z,73.97
2022-12-23T10:21:54.997Z,73.25
2022-12-23T10:24:24.618Z,73.72
2022-12-23T10:26:53.139Z,74.43
2022-12-23T10:29:23.064Z,73.98
2022-12-23T10:31:58.862Z,73.85
2022-12-23T10:34:56.411Z,73.60
2022-12-23T10:37:33.627Z,73.97
2022-12-23T10:40:22.433Z,73.73
2022-12-23T10:43:26.964Z,74.01
2022-12-23T10:46:11.912Z,74.18
2022-12-23T10:49:00.262Z,73.69
2022-12-23T10:51:49.562Z,74.62
2022-12-23T10:54:37.206Z,74.38
2022-12-23T10:57:05.470Z,74.06
2022-12-23T10:59:35.054Z,74.14
2022-12-23T11:02:27.295Z,74.27
2022-12-23T11:04:54.550Z,74.14
2022-12-23T11:07:44.164Z,73.81
2022-12-23T11:10:22.137Z,74.41
2022-12-23T11:12:51.803Z,73.90
2022-12-23T11:15:39.533Z,74.13
2022-12-23T11:18:12.586Z,74.19
2022-12-23T11:20:42.332Z,74.99
2022-12-23T11:23:28.874Z,74.60
2022-12-23T11:26:07.886Z,74.73
2022-12-23T11:28:47.769Z,74.52
2022-12-23T11:31:17.130Z,74.82
2022-12-23T11:34:11.106Z,74.45
2022-12-23T11:36:38.614Z,75.02
2022-12-23T11:39:14.440Z,74.62
2022-12-23T11:41:50.339Z,75.13
2022-12-23T11:44:32.420Z,74.67
2022-12-23T11:47:17.400Z,75.23
2022-12-23T11:49:53.978Z,74.73
2022-12-23T11:52:23.778Z,75.01
2022-12-23T11:54:57.209Z,74.84
2022-12-23T11:57:47.054Z,75.33
2022-12-23T12:00:24.885Z,76.10
2022-12-23T12:03:03.752Z,75.09
2022-12-23T12:05:41.394Z,74.55
2022-12-23T12:08:15.379Z,74.44
2022-12-23T12:10:43.315Z,74.75
2022-12-23T12:13:28.085Z,75.09
2022-12-23T12:16:01.125Z,75.15
2022-12-23T12:18:29.246Z,74.87
2022-12-23T12:21:01.753Z,75.00
2022-12-23T12:23:48.220Z,74.92
2022-12-23T12:26:25.959Z,74.81
2022-12-23T12:29:31.300Z,74.94
2022-12-23T12:32:00.227Z,75.18
2022-12-23T12:34:45.757Z,74.82
2022-12-23T12:37:12.661Z,74.75
2022-12-23T12:39:51.726Z,75.68
2022-12-23T12:42:29.228Z,74.54
2022-12-23T12:45:03.712Z,74.72
2022-12-23T12:48:00.196Z,74.95
2022-12-23T12:50:34.897Z,75.28
2022-12-23T12:53:13.668Z,74.85
2022-12-23T12:55:46.492Z,75.27
2022-12-23T12:58:21.907Z,75.24
2022-12-23T13:01:14.976Z,75.09
2022-12-23T13:04:14.489Z,74.96
2022-12-23T13:07:05.701Z,74.98
2022-12-23T13:09:53.058Z,74.88
2022-12-23T13:12:20.036Z,75.29
2022-12-23T13:15:08.994Z,75.08
2022-12-23T13:17:51.042Z,75.34
2022-12-23T13:21:04.339Z,75.36
2022-12-23T13:24:04.056Z,75.52
2022-12-23T13:26:51.659Z,75.63
2022-12-23T13:29:58.299Z,75.43
2022-12-23T13:32:54.670Z,75.58
2022-12-23T13:35:43.583Z,75.34
2022-12-23T13:39:07.847Z,76.01
2022-12-23T13:41:40.915Z,76.12
2022-12-23T13:44:10.812Z,75.96
2022-12-23T13:46:55.080Z,75.53
2022-12-23T13:49:33.910Z,75.15
2022-12-23T13:52:08.500Z,75.21
2022-12-23T13:55:03.157Z,75.48
2022-12-23T13:57:59.908Z,75.04
2022-12-23T14:00:30.995Z,75.13
2022-12-23T14:02:57.945Z,75.64
2022-12-23T14:05:46.929Z,76.42
2022-12-23T14:08:19.910Z,76.16
2022-12-23T14:11:12.781Z,76.24
2022-12-23T14:13:52.184Z,76.25
2022-12-23T14:16:21.893Z,75.80
2022-12-23T14:19:16.498Z,75.69
2022-12-23T14:22:08.048Z,75.40
2022-12-23T14:24:45.502Z,74.97
2022-12-23T14:27:24.594Z,75.45
2022-12-23T14:32:50.733Z,75.32
2022-12-23T14:35:38.599Z,75.67
2022-12-23T14:38:15.252Z,76.35
2022-12-23T14:40:42.199Z,75.77
2022-12-23T14:43:32.832Z,75.16
2022-12-23T14:46:05.984Z,75.55
2022-12-23T14:48:36.201Z,75.54
2022-12-23T14:51:10.226Z,75.64
2022-12-23T14:53:53.873Z,75.24
2022-12-23T14:56:28.798Z,75.60
2022-12-23T14:59:05.237Z,75.42
2022-12-23T15:01:42.676Z,75.67
2022-12-23T15:04:24.302Z,75.34
2022-12-23T15:06:55.732Z,75.19
2022-12-23T15:09:28.786Z,75.22
2022-12-23T15:11:59.892Z,75.24
2022-12-23T15:14:57.393Z,75.36
2022-12-23T15:17:27.954Z,75.32
2022-12-23T15:20:22.406Z,75.94
2022-12-23T15:22:49.872Z,75.50
2022-12-23T15:25:26.567Z,75.45
2022-12-23T15:28:01.496Z,75.76
2022-12-23T15:30:46.303Z,75.73
2022-12-23T15:33:51.817Z,75.65
2022-12-23T15:36:06.653Z,75.14
2022-12-23T15:38:37.683Z,75.38
2022-12-23T15:41:15.544Z,74.84
2022-12-23T15:43:43.518Z,74.94
2022-12-23T15:46:21.930Z,75.43
2022-12-23T15:48:52.694Z,74.99
2022-12-23T15:54:34.292Z,74.88
2022-12-23T15:57:03.360Z,75.56
2022-12-23T15:59:37.813Z,76.14
2022-12-23T16:02:40.457Z,75.74
2022-12-23T16:05:00.799Z,74.78
2022-12-23T16:07:37.054Z,75.62
2022-12-23T16:10:24.447Z,75.57
2022-12-23T16:12:52.137Z,75.77
2022-12-23T16:15:33.377Z,75.87
2022-12-23T16:18:19.237Z,75.71
2022-12-23T16:20:49.971Z,75.41
2022-12-23T16:23:17.933Z,75.21
2022-12-23T16:25:50.399Z,75.23
2022-12-23T16:28:30.029Z,75.03
2022-12-23T16:30:58.588Z,75.66
2022-12-23T16:33:51.496Z,75.83
2022-12-23T16:36:27.762Z,75.61
2022-12-23T16:39:06.743Z,75.61
2022-12-23T16:41:34.978Z,74.97
2022-12-23T16:44:02.847Z,75.18
2022-12-23T16:46:37.033Z,75.19
2022-12-23T16:49:08.493Z,75.63
2022-12-23T16:51:38.544Z,75.43
2022-12-23T16:54:06.277Z,75.08
2022-12-23T16:56:37.970Z,74.87
2022-12-23T16:59:05.388Z,75.68
2022-12-23T17:01:35.183Z,75.69
2022-12-23T17:04:02.719Z,75.99
2022-12-23T17:06:29.797Z,75.02
2022-12-23T17:08:57.154Z,75.75
2022-12-23T17:11:38.652Z,75.51
2022-12-23T17:14:13.530Z,75.17
2022-12-23T17:16:42.709Z,75.48
2022-12-23T17:19:09.852Z,75.86
2022-12-23T17:21:39.184Z,75.20
2022-12-23T17:24:25.509Z,75.34
2022-12-23T17:26:53.952Z,75.38
2022-12-23T17:29:20.980Z,75.81
2022-12-23T17:31:49.058Z,75.34
2022-12-23T17:34:20.818Z,75.46
2022-12-23T17:36:50.763Z,75.31
2022-12-23T17:39:19.707Z,75.11
2022-12-23T17:41:46.869Z,75.09
2022-12-23T17:44:15.425Z,75.16
2022-12-23T17:46:43.187Z,75.42
2022-12-23T17:49:10.218Z,75.50
2022-12-23T17:51:39.655Z,75.17
2022-12-23T17:54:06.867Z,74.81
2022-12-23T17:56:33.890Z,75.12
2022-12-23T17:59:00.911Z,75.12
2022-12-23T18:01:30.470Z,75.17
2022-12-23T18:03:59.046Z,75.21
2022-12-23T18:06:28.128Z,75.44
2022-12-23T18:08:57.201Z,76.00
2022-12-23T18:11:36.507Z,75.79
2022-12-23T18:14:04.229Z,75.57
2022-12-23T18:16:31.452Z,75.96
2022-12-23T18:18:58.611Z,75.94
2022-12-23T18:21:28.807Z,75.67
2022-12-23T18:23:58.847Z,75.31
2022-12-23T18:26:26.312Z,76.07
2022-12-23T18:28:54.441Z,75.74
2022-12-23T18:31:27.495Z,75.75
2022-12-23T18:33:54.953Z,75.72
2022-12-23T18:36:28.453Z,75.30
2022-12-23T18:38:57.253Z,75.78
2022-12-23T18:41:26.101Z,75.63
2022-12-23T18:43:53.788Z,75.62
2022-12-23T18:46:21.440Z,75.48
2022-12-23T18:48:48.722Z,75.51
2022-12-23T18:51:17.593Z,76.20
2022-12-23T18:53:46.564Z,75.47
2022-12-23T18:56:15.222Z,75.26
2022-12-23T18:58:42.619Z,75.89
2022-12-23T19:01:14.626Z,75.51
2022-12-23T19:03:42.683Z,75.43
2022-12-23T19:06:13.410Z,75.86
2022-12-23T19:08:41.845Z,75.83
2022-12-23T19:11:17.808Z,76.25
2022-12-23T19:13:45.604Z,75.84
2022-12-23T19:16:18.387Z,75.74
2022-12-23T19:18:46.705Z,76.04
2022-12-23T19:21:14.401Z,75.58
2022-12-23T19:23:42.049Z,75.62
2022-12-23T19:26:14.271Z,75.49
2022-12-23T19:28:42.078Z,75.61
2022-12-23T19:31:10.920Z,75.89
2022-12-23T19:33:42.827Z,76.13
2022-12-23T19:36:22.995Z,75.82
2022-12-23T19:38:50.420Z,75.72
2022-12-23T19:41:18.666Z,75.61
2022-12-23T19:43:47.119Z,75.58
2022-12-23T19:46:15.446Z,75.62
2022-12-23T19:48:42.836Z,75.12
2022-12-23T19:51:14.387Z,75.33
2022-12-23T19:53:42.180Z,75.32
2022-12-23T19:56:14.483Z,75.33
2022-12-23T19:58:44.180Z,75.54
2022-12-23T20:01:17.264Z,75.01
2022-12-23T20:03:46.181Z,75.22
2022-12-23T20:06:22.027Z,74.61
2022-12-23T20:08:52.655Z,74.97
2022-12-23T20:11:26.233Z,75.51
2022-12-23T20:13:54.703Z,75.76
2022-12-23T20:16:22.763Z,75.08
2022-12-23T20:18:49.926Z,74.80
2022-12-23T20:21:17.202Z,74.82
2022-12-23T20:23:44.188Z,74.93
2022-12-23T20:26:13.116Z,74.63
2022-12-23T20:28:40.627Z,74.70
2022-12-23T20:31:26.953Z,75.20
2022-12-23T20:33:54.734Z,74.68
2022-12-23T20:36:27.851Z,75.25
2022-12-23T20:38:56.250Z,74.67
2022-12-23T20:41:26.475Z,74.80
2022-12-23T20:44:31.599Z,74.78
2022-12-23T20:46:41.157Z,75.01
2022-12-23T20:49:08.220Z,74.42
2022-12-23T20:51:35.160Z,74.54
2022-12-23T20:54:02.176Z,74.98
2022-12-23T20:56:30.512Z,75.36
2022-12-23T20:58:59.391Z,75.25
2022-12-23T21:01:28.392Z,74.56
2022-12-23T21:03:56.945Z,74.83
2022-12-23T21:06:24.747Z,75.44
2022-12-23T21:08:52.514Z,74.45
2022-12-23T21:11:19.527Z,74.37
2022-12-23T21:13:50.597Z,74.48
2022-12-23T21:16:18.675Z,74.55
2022-12-23T21:18:53.634Z,74.70
2022-12-23T21:21:23.738Z,75.05
2022-12-23T21:23:50.861Z,73.79
2022-12-23T21:26:20.523Z,74.16
2022-12-23T21:28:48.859Z,74.08
2022-12-23T21:31:19.068Z,75.02
2022-12-23T21:33:47.697Z,73.96
2022-12-23T21:36:20.222Z,74.21
2022-12-23T21:38:49.288Z,73.96
2022-12-23T21:41:19.919Z,74.20
2022-12-23T21:43:47.571Z,74.83
2022-12-23T21:46:17.235Z,74.29
2022-12-23T21:48:44.975Z,73.94
2022-12-23T21:51:16.767Z,74.25
2022-12-23T21:53:45.478Z,74.30
2022-12-23T21:56:16.224Z,74.27
2022-12-23T21:58:43.512Z,74.11
2022-12-23T22:01:13.652Z,73.76
2022-12-23T22:03:41.550Z,73.69
2022-12-23T22:06:14.184Z,73.50
2022-12-23T22:08:42.071Z,73.38
2022-12-23T22:11:17.227Z,73.69
2022-12-23T22:13:45.090Z,73.74
2022-12-23T22:16:14.677Z,73.22
2022-12-23T22:18:42.742Z,73.54
2022-12-23T22:21:21.596Z,73.72
2022-12-23T22:23:50.030Z,73.55
2022-12-23T22:26:25.279Z,73.85
2022-12-23T22:28:55.041Z,73.26
2022-12-23T22:31:27.313Z,73.52
2022-12-23T22:33:54.516Z,73.12
2022-12-23T22:36:21.677Z,73.03
2022-12-23T22:38:57.698Z,73.19
2022-12-23T22:41:28.077Z,72.96
2022-12-23T22:43:56.113Z,73.57
2022-12-23T22:46:24.654Z,73.20
2022-12-23T22:48:52.774Z,73.08
2022-12-23T22:51:23.082Z,73.18
2022-12-23T22:53:50.918Z,72.88
2022-12-23T22:56:19.548Z,73.40
2022-12-23T22:58:47.474Z,72.65
2022-12-23T23:01:23.903Z,72.77
2022-12-23T23:03:57.334Z,73.17
2022-12-23T23:06:26.654Z,73.35
2022-12-23T23:08:54.959Z,72.95
2022-12-23T23:11:22.814Z,72.88
2022-12-23T23:13:49.756Z,73.59
2022-12-23T23:16:16.750Z,73.40
2022-12-23T23:18:44.072Z,72.93
2022-12-23T23:21:13.293Z,73.64
2022-12-23T23:23:40.389Z,73.45
2022-12-23T23:26:10.309Z,73.46
2022-12-23T23:28:39.461Z,73.15
2022-12-23T23:31:40.621Z,73.33
2022-12-23T23:33:54.281Z,73.40
2022-12-23T23:36:21.509Z,73.51
2022-12-23T23:38:48.530Z,72.93
2022-12-23T23:41:20.616Z,72.76
2022-12-23T23:43:50.079Z,72.32
2022-12-23T23:46:17.246Z,73.28
2022-12-23T23:48:44.303Z,72.69
2022-12-23T23:51:12.653Z,72.62
2022-12-23T23:53:40.495Z,72.88
2022-12-23T23:56:08.544Z,72.19
2022-12-23T23:58:36.886Z,72.47
